Camp Ernest, Kentucky
Current Conditions -  °F | °C
As of 3:52 PM on Thursday 18 Dec 2014 (Local Time) from KCVG Reporting Station
Overcast Overcast  
Wind Chill: 30°   Ceiling: 8500
Heat Index: 30°   Visibility: 9mi
Dew Point: 19°   Wind: 3mph
Humidity: 64%   Direction: 310°NW
Pressure: 30.21"   Gusts: NA
Location:  39.0238°N, 84.7647°W
Report Text: KCVG 182052Z 31003KT 9SM FEW020 SCT070 OVC085 M01/M07 A3021 RMK AO2 SLP239 60000 T10111072 55010
Loading
Personal Weather Stations






























Interactive Weather Map New forecast layout! Learn more

10-Day Weather Forecast

Advertisements
Track Severe Weather on mobile